createdAt,value
2023-05-02T00:01:20.375Z,47.70
2023-05-02T00:03:47.356Z,47.80
2023-05-02T00:06:14.254Z,47.80
2023-05-02T00:08:41.155Z,48.00
2023-05-02T00:11:08.042Z,48.00
2023-05-02T00:13:34.949Z,48.10
2023-05-02T00:16:01.939Z,48.10
2023-05-02T00:18:28.832Z,48.10
2023-05-02T00:20:56.777Z,48.10
2023-05-02T00:23:23.968Z,48.10
2023-05-02T00:25:50.920Z,48.10
2023-05-02T00:28:18.526Z,48.10
2023-05-02T00:30:46.470Z,48.10
2023-05-02T00:33:14.782Z,48.20
2023-05-02T00:35:42.150Z,48.10
2023-05-02T00:38:09.243Z,48.30
2023-05-02T00:40:53.952Z,48.30
2023-05-02T00:45:48.672Z,48.30
2023-05-02T00:48:17.809Z,48.50
2023-05-02T00:50:44.723Z,48.50
2023-05-02T00:53:11.858Z,48.50
2023-05-02T00:55:38.796Z,48.40
2023-05-02T00:58:11.891Z,48.90
2023-05-02T01:00:59.528Z,48.50
2023-05-02T01:03:39.138Z,48.60
2023-05-02T01:06:09.107Z,48.60
2023-05-02T01:08:47.005Z,48.50
2023-05-02T01:11:35.731Z,48.80
2023-05-02T01:14:06.126Z,48.50
2023-05-02T01:16:38.357Z,48.40
2023-05-02T01:19:09.578Z,48.40
2023-05-02T01:21:38.745Z,48.30
2023-05-02T01:24:25.550Z,48.40
2023-05-02T01:27:11.496Z,48.30
2023-05-02T01:29:40.546Z,48.50
2023-05-02T01:32:09.371Z,48.50
2023-05-02T01:34:40.698Z,48.60
2023-05-02T01:37:10.944Z,48.60
2023-05-02T01:39:39.915Z,48.70
2023-05-02T01:42:06.892Z,48.70
2023-05-02T01:44:36.476Z,48.70
2023-05-02T01:47:05.861Z,48.70
2023-05-02T01:49:35.146Z,48.80
2023-05-02T01:52:12.838Z,48.80
2023-05-02T01:54:41.702Z,49.50
2023-05-02T01:57:10.624Z,48.80
2023-05-02T01:59:39.818Z,48.70
2023-05-02T02:02:08.473Z,48.80
2023-05-02T02:04:38.039Z,48.80
2023-05-02T02:07:08.684Z,48.90
2023-05-02T02:09:36.023Z,48.90
2023-05-02T02:12:22.483Z,48.90
2023-05-02T02:14:56.843Z,48.80
2023-05-02T02:17:32.336Z,48.90
2023-05-02T02:20:03.409Z,49.70
2023-05-02T02:22:34.438Z,49.00
2023-05-02T02:25:01.676Z,49.00
2023-05-02T02:27:28.760Z,49.10
2023-05-02T02:29:55.628Z,49.10
2023-05-02T02:32:22.434Z,49.10
2023-05-02T02:34:49.471Z,49.10
2023-05-02T02:37:25.682Z,49.10
2023-05-02T02:40:12.380Z,49.10
2023-05-02T02:42:50.138Z,49.20
2023-05-02T02:45:44.156Z,49.20
2023-05-02T02:48:32.233Z,49.20
2023-05-02T02:51:23.068Z,49.30
2023-05-02T02:53:58.249Z,49.30
2023-05-02T02:56:28.833Z,49.40
2023-05-02T02:59:00.845Z,49.30
2023-05-02T03:01:32.341Z,49.30
2023-05-02T03:03:59.602Z,49.30
2023-05-02T03:06:27.312Z,49.30
2023-05-02T03:08:55.059Z,49.40
2023-05-02T03:11:29.526Z,49.30
2023-05-02T03:13:57.569Z,49.40
2023-05-02T03:16:41.337Z,49.40
2023-05-02T03:19:12.886Z,49.30
2023-05-02T03:21:39.731Z,50.20
2023-05-02T03:24:12.806Z,49.40
2023-05-02T03:26:39.744Z,49.20
2023-05-02T03:29:09.244Z,49.30
2023-05-02T03:31:39.718Z,49.10
2023-05-02T03:34:06.746Z,49.10
2023-05-02T03:36:34.537Z,49.10
2023-05-02T03:39:01.919Z,49.20
2023-05-02T03:41:29.708Z,49.20
2023-05-02T03:44:02.722Z,49.20
2023-05-02T03:46:30.319Z,49.20
2023-05-02T03:49:00.367Z,49.40
2023-05-02T03:51:27.292Z,49.40
2023-05-02T03:53:56.718Z,49.40
2023-05-02T03:56:24.148Z,49.40
2023-05-02T03:59:01.209Z,49.40
2023-05-02T04:01:28.101Z,49.40
2023-05-02T04:03:56.870Z,49.40
2023-05-02T04:06:25.832Z,49.70
2023-05-02T04:08:59.444Z,49.50
2023-05-02T04:11:32.028Z,49.50
2023-05-02T04:13:58.828Z,49.50
2023-05-02T04:16:25.860Z,49.50
2023-05-02T04:18:53.156Z,49.40
2023-05-02T04:21:20.283Z,49.40
2023-05-02T04:23:48.054Z,49.30
2023-05-02T04:26:15.416Z,49.40
2023-05-02T04:28:48.947Z,49.40
2023-05-02T04:31:16.771Z,49.40
2023-05-02T04:33:45.365Z,49.50
2023-05-02T04:36:12.861Z,49.40
2023-05-02T04:38:43.252Z,49.50
2023-05-02T04:41:10.762Z,49.40
2023-05-02T04:43:43.915Z,49.40
2023-05-02T04:46:12.342Z,49.30
2023-05-02T04:48:42.488Z,49.60
2023-05-02T04:51:10.407Z,49.30
2023-05-02T04:53:37.979Z,49.30
2023-05-02T04:56:05.235Z,49.30
2023-05-02T04:58:35.353Z,49.40
2023-05-02T05:01:05.393Z,49.20
2023-05-02T05:03:33.566Z,49.10
2023-05-02T05:06:02.339Z,49.30
2023-05-02T05:08:29.475Z,49.30
2023-05-02T05:10:57.359Z,49.20
2023-05-02T05:13:24.888Z,49.10
2023-05-02T05:15:52.866Z,49.10
2023-05-02T05:18:23.698Z,49.10
2023-05-02T05:20:50.499Z,49.10
2023-05-02T05:23:17.324Z,49.00
2023-05-02T05:25:45.948Z,49.10
2023-05-02T05:28:15.814Z,49.00
2023-05-02T05:30:42.775Z,49.00
2023-05-02T05:33:13.171Z,49.00
2023-05-02T05:35:40.253Z,49.00
2023-05-02T05:38:07.055Z,49.00
2023-05-02T05:40:36.796Z,49.10
2023-05-02T05:43:05.218Z,49.20
2023-05-02T05:45:36.026Z,49.20
2023-05-02T05:48:04.403Z,49.10
2023-05-02T05:50:35.571Z,49.00
2023-05-02T05:53:02.889Z,48.90
2023-05-02T05:55:29.764Z,49.10
2023-05-02T05:57:56.883Z,48.70
2023-05-02T06:00:23.870Z,48.70
2023-05-02T06:02:52.617Z,48.60
2023-05-02T06:05:26.192Z,48.40
2023-05-02T06:07:53.266Z,48.50
2023-05-02T06:10:20.089Z,48.60
2023-05-02T06:12:48.598Z,48.60
2023-05-02T06:15:18.042Z,48.70
2023-05-02T06:17:45.150Z,48.70
2023-05-02T06:20:12.316Z,48.30
2023-05-02T06:22:39.962Z,48.50
2023-05-02T06:25:08.807Z,48.60
2023-05-02T06:27:35.885Z,48.40
2023-05-02T06:30:03.359Z,48.60
2023-05-02T06:32:32.040Z,48.90
2023-05-02T06:34:58.882Z,48.40
2023-05-02T06:37:26.010Z,48.90
2023-05-02T06:39:52.997Z,49.10
2023-05-02T06:42:19.811Z,49.20
2023-05-02T06:44:46.712Z,49.20
2023-05-02T06:47:13.836Z,48.50
2023-05-02T06:49:40.674Z,48.40
2023-05-02T06:52:07.485Z,48.40
2023-05-02T06:54:34.392Z,48.40
2023-05-02T06:57:02.161Z,47.70
2023-05-02T06:59:42.996Z,47.70
2023-05-02T07:02:09.879Z,48.20
2023-05-02T07:04:37.134Z,48.60
2023-05-02T07:07:04.098Z,49.10
2023-05-02T07:09:31.022Z,49.70
2023-05-02T07:11:57.734Z,50.30
2023-05-02T07:14:24.582Z,50.50
2023-05-02T07:16:51.592Z,50.50
2023-05-02T07:19:18.471Z,50.30
2023-05-02T07:21:45.248Z,50.10
2023-05-02T07:24:12.136Z,50.10
2023-05-02T07:26:38.992Z,50.00
2023-05-02T07:29:06.815Z,50.00
2023-05-02T07:31:33.670Z,50.20
2023-05-02T07:34:00.532Z,49.60
2023-05-02T07:36:27.956Z,49.50
2023-05-02T07:38:54.816Z,49.40
2023-05-02T07:41:22.022Z,49.20
2023-05-02T07:43:49.381Z,49.30
2023-05-02T07:46:16.371Z,49.90
2023-05-02T07:48:43.431Z,49.20
2023-05-02T07:51:11.095Z,49.10
2023-05-02T07:53:38.002Z,49.10
2023-05-02T07:56:06.859Z,49.10
2023-05-02T07:58:34.746Z,49.00
2023-05-02T08:01:01.592Z,48.90
2023-05-02T08:03:29.509Z,48.80
2023-05-02T08:05:57.323Z,48.60
2023-05-02T08:08:24.847Z,48.60
2023-05-02T08:10:52.038Z,48.90
2023-05-02T08:13:19.094Z,48.50
2023-05-02T08:15:46.034Z,48.60
2023-05-02T08:18:13.137Z,48.40
2023-05-02T08:20:39.999Z,48.30
2023-05-02T08:23:06.802Z,48.10
2023-05-02T08:25:33.626Z,48.00
2023-05-02T08:28:01.309Z,48.10
2023-05-02T08:30:28.156Z,48.10
2023-05-02T08:32:55.024Z,48.10
2023-05-02T08:35:22.064Z,48.10
2023-05-02T08:37:48.917Z,48.20
2023-05-02T08:40:24.627Z,48.70
2023-05-02T08:43:01.631Z,48.50
2023-05-02T08:45:37.431Z,48.40
2023-05-02T08:48:10.404Z,48.40
2023-05-02T08:50:42.542Z,48.30
2023-05-02T08:53:11.381Z,48.60
2023-05-02T08:55:40.515Z,48.10
2023-05-02T08:58:08.786Z,48.00
2023-05-02T09:00:40.525Z,47.90
2023-05-02T09:03:31.540Z,48.60
2023-05-02T09:06:04.971Z,47.80
2023-05-02T09:08:31.959Z,47.80
2023-05-02T09:10:59.397Z,47.70
2023-05-02T09:13:36.637Z,47.60
2023-05-02T09:16:12.223Z,47.60
2023-05-02T09:18:40.713Z,47.50
2023-05-02T09:21:29.402Z,47.40
2023-05-02T09:23:59.017Z,47.40
2023-05-02T09:26:32.403Z,47.20
2023-05-02T09:29:01.444Z,47.20
2023-05-02T09:34:10.413Z,47.20
2023-05-02T09:36:51.965Z,47.00
2023-05-02T09:39:26.369Z,46.80
2023-05-02T09:41:53.596Z,46.80
2023-05-02T09:44:23.846Z,47.50
2023-05-02T09:46:53.453Z,47.50
2023-05-02T09:49:45.436Z,46.70
2023-05-02T09:52:17.669Z,46.70
2023-05-02T09:54:46.388Z,46.60
2023-05-02T09:57:13.457Z,46.60
2023-05-02T09:59:41.168Z,46.50
2023-05-02T10:02:11.239Z,46.60
2023-05-02T10:04:39.568Z,46.40
2023-05-02T10:07:10.268Z,46.30
2023-05-02T10:09:42.663Z,46.30
2023-05-02T10:12:09.904Z,46.20
2023-05-02T10:14:41.605Z,46.20
2023-05-02T10:17:13.035Z,46.90
2023-05-02T10:19:56.841Z,46.10
2023-05-02T10:22:24.919Z,46.00
2023-05-02T10:24:53.178Z,46.00
2023-05-02T10:27:20.347Z,45.90
2023-05-02T10:29:47.482Z,45.90
2023-05-02T10:32:17.911Z,45.80
2023-05-02T10:34:46.365Z,45.80
2023-05-02T10:37:13.231Z,45.70
2023-05-02T10:39:40.181Z,45.70
2023-05-02T10:42:07.928Z,45.70
2023-05-02T10:44:36.582Z,45.60
2023-05-02T10:47:23.183Z,45.60
2023-05-02T10:50:00.958Z,45.60
2023-05-02T10:52:29.089Z,45.60
2023-05-02T10:55:21.324Z,45.60
2023-05-02T10:58:00.361Z,46.30
2023-05-02T11:00:32.530Z,46.10
2023-05-02T11:03:00.719Z,45.60
2023-05-02T11:05:28.344Z,45.40
2023-05-02T11:08:23.215Z,45.40
2023-05-02T11:10:50.261Z,45.20
2023-05-02T11:13:37.084Z,45.20
2023-05-02T11:16:04.131Z,45.10
2023-05-02T11:19:00.888Z,45.00
2023-05-02T11:21:29.338Z,45.00
2023-05-02T11:24:33.789Z,44.90
2023-05-02T11:27:30.735Z,44.80
2023-05-02T11:30:06.595Z,44.80
2023-05-02T11:32:45.631Z,44.80
2023-05-02T11:35:23.470Z,44.80
2023-05-02T11:37:57.895Z,44.90
2023-05-02T11:40:26.504Z,45.10
2023-05-02T11:42:53.986Z,45.30
2023-05-02T11:45:21.488Z,45.30
2023-05-02T11:47:50.841Z,45.40
2023-05-02T11:50:18.576Z,45.40
2023-05-02T11:52:46.112Z,45.40
2023-05-02T11:55:14.934Z,45.40
2023-05-02T11:57:42.849Z,45.30
2023-05-02T12:00:13.127Z,45.40
2023-05-02T12:02:41.540Z,45.30
2023-05-02T12:05:11.600Z,45.30
2023-05-02T12:07:39.523Z,45.20
2023-05-02T12:10:07.739Z,45.30
2023-05-02T12:12:35.347Z,45.30
2023-05-02T12:15:11.218Z,46.00
2023-05-02T12:17:43.191Z,45.20
2023-05-02T12:20:11.501Z,45.20
2023-05-02T12:22:38.708Z,45.10
2023-05-02T12:25:06.529Z,45.10
2023-05-02T12:27:34.546Z,45.10
2023-05-02T12:30:02.815Z,45.10
2023-05-02T12:32:32.425Z,45.20
2023-05-02T12:35:00.060Z,45.10
2023-05-02T12:37:28.242Z,45.00
2023-05-02T12:39:56.574Z,45.00
2023-05-02T12:42:25.398Z,45.00
2023-05-02T12:44:53.201Z,45.00
2023-05-02T12:47:22.484Z,45.00
2023-05-02T12:49:58.138Z,45.00
2023-05-02T12:52:46.641Z,44.90
2023-05-02T12:55:24.643Z,44.80
2023-05-02T12:57:59.750Z,44.80
2023-05-02T13:00:26.816Z,44.80
2023-05-02T13:02:53.755Z,44.70
2023-05-02T13:05:20.964Z,44.70
2023-05-02T13:07:47.886Z,44.60
2023-05-02T13:10:17.723Z,44.60
2023-05-02T13:12:48.165Z,44.70
2023-05-02T13:15:15.432Z,44.60
2023-05-02T13:17:42.997Z,45.20
2023-05-02T13:20:10.708Z,44.50
2023-05-02T13:22:37.698Z,44.40
2023-05-02T13:25:08.168Z,44.40
2023-05-02T13:27:34.993Z,44.30
2023-05-02T13:30:03.469Z,44.40
2023-05-02T13:32:32.514Z,44.30
2023-05-02T13:34:59.306Z,44.30
2023-05-02T13:37:26.766Z,44.30
2023-05-02T13:39:53.649Z,44.20
2023-05-02T13:42:20.474Z,44.30
2023-05-02T13:44:47.234Z,44.90
2023-05-02T13:47:14.110Z,44.10
2023-05-02T13:49:40.904Z,44.20
2023-05-02T13:52:07.813Z,44.10
2023-05-02T13:54:34.606Z,44.00
2023-05-02T13:57:02.554Z,44.00
2023-05-02T13:59:29.545Z,44.10
2023-05-02T14:01:56.699Z,43.90
2023-05-02T14:04:23.731Z,43.90
2023-05-02T14:06:50.814Z,43.90
2023-05-02T14:09:17.857Z,43.90
2023-05-02T14:11:47.198Z,43.90
2023-05-02T14:14:14.115Z,43.80
2023-05-02T14:16:41.307Z,43.80
2023-05-02T14:19:08.193Z,43.70
2023-05-02T14:21:34.977Z,43.60
2023-05-02T14:24:01.819Z,43.70
2023-05-02T14:26:28.546Z,43.60
2023-05-02T14:28:56.729Z,43.60
2023-05-02T14:31:23.571Z,43.50
2023-05-02T14:33:50.990Z,43.40
2023-05-02T14:36:17.846Z,43.70
2023-05-02T14:38:44.783Z,43.70
2023-05-02T14:41:11.705Z,43.50
2023-05-02T14:43:39.435Z,43.60
2023-05-02T14:46:06.508Z,43.20
2023-05-02T14:48:33.362Z,43.30
2023-05-02T14:51:04.031Z,43.10
2023-05-02T14:53:31.430Z,42.90
2023-05-02T14:55:58.310Z,42.90
2023-05-02T14:58:25.108Z,43.20
2023-05-02T15:00:52.420Z,43.20
2023-05-02T15:03:19.804Z,43.10
2023-05-02T15:05:46.755Z,42.80
2023-05-02T15:08:13.718Z,42.90
2023-05-02T15:10:40.709Z,42.40
2023-05-02T15:13:08.604Z,42.80
2023-05-02T15:15:35.763Z,42.30
2023-05-02T15:18:02.806Z,42.40
2023-05-02T15:20:29.659Z,42.30
2023-05-02T15:22:58.653Z,42.30
2023-05-02T15:25:25.872Z,42.30
2023-05-02T15:27:52.829Z,42.30
2023-05-02T15:30:21.858Z,42.70
2023-05-02T15:32:50.584Z,42.60
2023-05-02T15:35:17.546Z,42.10
2023-05-02T15:37:44.438Z,42.60
2023-05-02T15:40:11.914Z,42.10
2023-05-02T15:42:38.734Z,42.10
2023-05-02T15:45:06.389Z,42.10
2023-05-02T15:47:33.456Z,42.30
2023-05-02T15:50:00.964Z,42.10
2023-05-02T15:52:27.956Z,42.10
2023-05-02T15:54:55.974Z,41.90
2023-05-02T15:57:23.041Z,41.80
2023-05-02T15:59:50.039Z,42.00
2023-05-02T16:02:16.871Z,42.20
2023-05-02T16:04:43.902Z,41.90
2023-05-02T16:07:11.314Z,41.80
2023-05-02T16:09:39.591Z,41.80
2023-05-02T16:12:07.220Z,41.80
2023-05-02T16:14:34.749Z,42.00
2023-05-02T16:17:01.790Z,41.80
2023-05-02T16:19:28.597Z,41.80
2023-05-02T16:21:55.566Z,41.80
2023-05-02T16:24:22.448Z,41.80
2023-05-02T16:26:49.396Z,41.80
2023-05-02T16:29:16.203Z,41.90
2023-05-02T16:31:44.549Z,41.60
2023-05-02T16:34:11.875Z,41.60
2023-05-02T16:36:38.792Z,41.50
2023-05-02T16:39:05.759Z,41.40
2023-05-02T16:41:35.396Z,41.40
2023-05-02T16:44:02.249Z,41.30
2023-05-02T16:46:29.292Z,42.00
2023-05-02T16:48:56.064Z,41.30
2023-05-02T16:51:22.868Z,41.30
2023-05-02T16:53:49.782Z,41.30
2023-05-02T16:56:16.554Z,41.30
2023-05-02T16:58:43.422Z,41.20
2023-05-02T17:01:10.391Z,41.20
2023-05-02T17:03:37.421Z,41.20
2023-05-02T17:06:04.396Z,41.20
2023-05-02T17:08:31.416Z,41.70
2023-05-02T17:10:58.273Z,41.00
2023-05-02T17:13:25.282Z,40.90
2023-05-02T17:15:53.565Z,40.90
2023-05-02T17:18:20.556Z,40.90
2023-05-02T17:20:48.820Z,41.60
2023-05-02T17:23:16.022Z,41.50
2023-05-02T17:25:43.029Z,40.80
2023-05-02T17:28:10.133Z,40.80
2023-05-02T17:30:37.279Z,40.70
2023-05-02T17:33:04.415Z,40.70
2023-05-02T17:35:31.658Z,40.60
2023-05-02T17:37:58.604Z,40.60
2023-05-02T17:40:25.458Z,40.50
2023-05-02T17:42:52.340Z,40.60
2023-05-02T17:45:19.186Z,40.50
2023-05-02T17:47:46.069Z,40.50
2023-05-02T17:50:14.084Z,40.40
2023-05-02T17:52:41.045Z,40.40
2023-05-02T17:55:08.654Z,40.40
2023-05-02T17:57:35.611Z,40.50
2023-05-02T18:00:07.262Z,40.40
2023-05-02T18:02:38.589Z,40.30
2023-05-02T18:05:07.131Z,40.40
2023-05-02T18:07:33.972Z,40.30
2023-05-02T18:10:03.577Z,40.40
2023-05-02T18:12:32.208Z,40.30
2023-05-02T18:14:59.134Z,41.00
2023-05-02T18:17:26.956Z,40.30
2023-05-02T18:19:53.930Z,40.20
2023-05-02T18:22:21.829Z,40.30
2023-05-02T18:24:53.293Z,40.30
2023-05-02T18:27:20.296Z,40.20
2023-05-02T18:29:47.099Z,40.90
2023-05-02T18:32:14.738Z,40.20
2023-05-02T18:34:41.569Z,40.10
2023-05-02T18:37:08.391Z,40.20
2023-05-02T18:39:36.143Z,40.10
2023-05-02T18:42:04.295Z,40.00
2023-05-02T18:44:31.857Z,40.00
2023-05-02T18:46:58.899Z,40.00
2023-05-02T18:49:28.832Z,40.00
2023-05-02T18:51:55.791Z,40.00
2023-05-02T18:54:26.361Z,39.90
2023-05-02T18:56:53.293Z,39.90
2023-05-02T18:59:20.825Z,39.80
2023-05-02T19:01:50.885Z,39.80
2023-05-02T19:04:18.435Z,39.80
2023-05-02T19:06:45.820Z,39.70
2023-05-02T19:09:13.557Z,40.30
2023-05-02T19:11:40.556Z,39.60
2023-05-02T19:14:07.647Z,39.50
2023-05-02T19:16:38.084Z,39.50
2023-05-02T19:19:05.118Z,39.40
2023-05-02T19:21:34.015Z,39.40
2023-05-02T19:24:01.794Z,39.60
2023-05-02T19:26:28.662Z,39.50
2023-05-02T19:28:55.812Z,39.40
2023-05-02T19:31:23.576Z,39.40
2023-05-02T19:33:51.702Z,39.40
2023-05-02T19:36:24.146Z,39.50
2023-05-02T19:38:53.605Z,39.70
2023-05-02T19:41:24.493Z,39.80
2023-05-02T19:43:51.817Z,40.00
2023-05-02T19:46:19.452Z,40.00
2023-05-02T19:48:46.378Z,40.10
2023-05-02T19:51:13.477Z,40.10
2023-05-02T19:53:40.310Z,40.10
2023-05-02T19:56:07.401Z,40.00
2023-05-02T19:58:34.846Z,40.20
2023-05-02T20:01:01.728Z,40.10
2023-05-02T20:03:28.976Z,40.00
2023-05-02T20:05:57.465Z,40.20
2023-05-02T20:08:27.466Z,40.10
2023-05-02T20:10:55.290Z,40.00
2023-05-02T20:13:22.132Z,40.00
2023-05-02T20:15:50.686Z,40.00
2023-05-02T20:18:17.643Z,40.00
2023-05-02T20:20:44.589Z,40.40
2023-05-02T20:23:11.847Z,39.90
2023-05-02T20:25:40.357Z,40.00
2023-05-02T20:28:07.953Z,40.10
2023-05-02T20:30:34.817Z,40.00
2023-05-02T20:33:13.924Z,40.00
2023-05-02T20:35:42.573Z,40.10
2023-05-02T20:38:09.845Z,40.30
2023-05-02T20:40:39.820Z,40.30
2023-05-02T20:43:06.623Z,40.60
2023-05-02T20:45:33.524Z,40.90
2023-05-02T20:48:00.444Z,40.90
2023-05-02T20:50:28.704Z,40.70
2023-05-02T20:52:56.408Z,40.80
2023-05-02T20:55:24.209Z,40.80
2023-05-02T20:57:52.830Z,40.50
2023-05-02T21:00:22.272Z,41.00
2023-05-02T21:02:49.457Z,41.00
2023-05-02T21:05:16.655Z,40.80
2023-05-02T21:07:44.628Z,40.70
2023-05-02T21:10:11.656Z,40.60
2023-05-02T21:12:38.644Z,40.90
2023-05-02T21:15:07.183Z,41.10
2023-05-02T21:17:34.112Z,40.60
2023-05-02T21:20:01.361Z,40.70
2023-05-02T21:22:28.400Z,40.90
2023-05-02T21:24:55.815Z,40.80
2023-05-02T21:27:22.986Z,40.70
2023-05-02T21:29:50.051Z,40.90
2023-05-02T21:32:16.900Z,40.70
2023-05-02T21:34:43.696Z,40.60
2023-05-02T21:37:10.571Z,40.60
2023-05-02T21:39:38.639Z,40.70
2023-05-02T21:42:05.928Z,40.90
2023-05-02T21:44:32.840Z,41.10
2023-05-02T21:46:59.590Z,41.10
2023-05-02T21:49:28.556Z,40.70
2023-05-02T21:51:55.380Z,40.70
2023-05-02T21:54:22.261Z,40.90
2023-05-02T21:56:49.156Z,40.90
2023-05-02T21:59:16.023Z,40.90
2023-05-02T22:01:43.200Z,41.20
2023-05-02T22:04:10.329Z,41.20
2023-05-02T22:06:37.402Z,40.90
2023-05-02T22:09:04.922Z,41.00
2023-05-02T22:11:32.389Z,41.10
2023-05-02T22:13:59.289Z,41.20
2023-05-02T22:16:26.414Z,41.20
2023-05-02T22:18:53.277Z,41.00
2023-05-02T22:21:20.379Z,40.90
2023-05-02T22:23:47.196Z,40.80
2023-05-02T22:26:14.215Z,41.20
2023-05-02T22:28:41.174Z,41.20
2023-05-02T22:31:08.728Z,41.30
2023-05-02T22:33:35.743Z,41.20
2023-05-02T22:36:02.567Z,41.20
2023-05-02T22:38:29.427Z,41.00
2023-05-02T22:40:56.285Z,41.20
2023-05-02T22:43:23.165Z,41.30
2023-05-02T22:45:51.196Z,41.30
2023-05-02T22:48:18.315Z,41.30
2023-05-02T22:50:48.585Z,40.90
2023-05-02T22:53:15.654Z,41.00
2023-05-02T22:55:42.749Z,41.30
2023-05-02T22:58:09.582Z,41.00
2023-05-02T23:00:36.452Z,41.30
2023-05-02T23:03:03.579Z,40.90
2023-05-02T23:05:30.770Z,40.90
2023-05-02T23:07:58.005Z,41.10
2023-05-02T23:10:24.929Z,41.00
2023-05-02T23:12:51.868Z,41.50
2023-05-02T23:15:18.802Z,41.30
2023-05-02T23:17:45.682Z,41.40
2023-05-02T23:20:12.996Z,41.40
2023-05-02T23:22:46.297Z,41.10
2023-05-02T23:25:14.227Z,41.10
2023-05-02T23:27:41.023Z,41.00
2023-05-02T23:30:08.710Z,41.20
2023-05-02T23:32:37.132Z,40.90
2023-05-02T23:35:05.768Z,40.90
2023-05-02T23:37:33.271Z,41.30
2023-05-02T23:40:00.825Z,41.00
2023-05-02T23:42:33.782Z,40.90
2023-05-02T23:45:00.681Z,40.80
2023-05-02T23:47:27.529Z,41.10
2023-05-02T23:49:54.549Z,41.20
2023-05-02T23:52:21.446Z,41.10
2023-05-02T23:54:48.678Z,41.20
2023-05-02T23:57:15.486Z,40.90
2023-05-02T23:59:42.527Z,40.90
